createdAt,value
2023-03-03T00:03:11.274Z,33.05
2023-03-03T00:08:12.779Z,33.03
2023-03-03T00:13:19.993Z,32.97
2023-03-03T00:18:28.650Z,34.13
2023-03-03T00:23:43.131Z,34.13
2023-03-03T00:28:47.187Z,34.75
2023-03-03T00:33:55.636Z,36.80
2023-03-03T00:39:31.448Z,36.70
2023-03-03T00:45:00.140Z,38.78
2023-03-03T00:50:07.552Z,32.85
2023-03-03T00:55:09.097Z,32.40
2023-03-03T01:00:11.630Z,32.80
2023-03-03T01:05:15.181Z,31.33
2023-03-03T01:10:18.215Z,28.92
2023-03-03T01:15:19.694Z,28.45
2023-03-03T01:20:21.869Z,34.80
2023-03-03T01:25:23.572Z,35.35
2023-03-03T01:30:25.742Z,33.20
2023-03-03T01:35:27.276Z,30.80
2023-03-03T01:40:31.006Z,32.50
2023-03-03T01:45:53.770Z,27.95
2023-03-03T01:51:00.144Z,31.37
2023-03-03T01:56:02.875Z,28.15
2023-03-03T02:01:13.420Z,26.52
2023-03-03T02:06:17.663Z,28.85
2023-03-03T02:11:21.347Z,30.58
2023-03-03T02:16:22.826Z,26.83
2023-03-03T02:21:28.126Z,26.45
2023-03-03T02:26:32.103Z,29.30
2023-03-03T02:31:38.675Z,25.15
2023-03-03T02:36:40.448Z,24.48
2023-03-03T02:41:58.818Z,31.63
2023-03-03T02:47:06.804Z,24.50
2023-03-03T02:52:10.543Z,46.58
2023-03-03T02:57:14.675Z,26.50
2023-03-03T03:02:16.216Z,26.83
2023-03-03T03:07:17.822Z,27.25
2023-03-03T03:12:21.088Z,28.13
2023-03-03T03:17:26.169Z,23.25
2023-03-03T03:22:28.944Z,28.90
2023-03-03T03:27:30.790Z,30.50
2023-03-03T03:32:32.393Z,32.80
2023-03-03T03:37:35.028Z,28.30
2023-03-03T03:42:39.502Z,30.42
2023-03-03T03:47:42.455Z,34.20
2023-03-03T03:52:44.793Z,28.47
2023-03-03T04:02:48.930Z,24.63
2023-03-03T04:07:52.366Z,25.20
2023-03-03T04:12:54.550Z,23.85
2023-03-03T04:17:56.966Z,19.93
2023-03-03T04:22:59.017Z,21.42
2023-03-03T04:28:01.108Z,21.90
2023-03-03T04:33:02.714Z,20.98
2023-03-03T04:38:05.875Z,22.08
2023-03-03T04:43:10.110Z,21.40
2023-03-03T04:48:11.983Z,18.98
2023-03-03T04:53:13.759Z,20.95
2023-03-03T05:03:19.443Z,24.45
2023-03-03T05:08:21.075Z,26.37
2023-03-03T05:13:22.818Z,28.40
2023-03-03T05:18:26.024Z,29.17
2023-03-03T05:28:28.952Z,29.00
2023-03-03T05:33:30.501Z,27.15
2023-03-03T05:38:31.949Z,25.30
2023-03-03T05:43:33.658Z,27.98
2023-03-03T05:48:35.057Z,24.92
2023-03-03T05:53:36.626Z,29.27
2023-03-03T05:58:38.191Z,23.52
2023-03-03T06:03:39.745Z,31.15
2023-03-03T06:08:41.162Z,28.67
2023-03-03T06:13:42.615Z,26.27
2023-03-03T06:18:44.017Z,27.42
2023-03-03T06:23:45.434Z,21.40
2023-03-03T06:28:47.083Z,19.75
2023-03-03T06:33:49.736Z,27.90
2023-03-03T06:38:51.629Z,24.80
2023-03-03T06:43:53.493Z,25.27
2023-03-03T06:48:55.115Z,27.48
2023-03-03T06:53:58.289Z,28.55
2023-03-03T07:04:10.634Z,26.23
2023-03-03T07:09:21.316Z,27.30
2023-03-03T07:14:22.808Z,28.10
2023-03-03T07:19:30.317Z,29.67
2023-03-03T07:24:31.776Z,28.65
2023-03-03T07:29:34.173Z,25.90
2023-03-03T07:34:43.912Z,27.33
2023-03-03T07:39:47.351Z,28.15
2023-03-03T07:44:52.380Z,28.05
2023-03-03T07:49:56.651Z,28.13
2023-03-03T07:55:01.960Z,27.02
2023-03-03T08:00:18.774Z,25.40
2023-03-03T08:05:20.810Z,28.90
2023-03-03T08:10:32.308Z,26.98
2023-03-03T08:15:37.938Z,23.30
2023-03-03T08:20:50.563Z,22.90
2023-03-03T08:25:53.722Z,26.57
2023-03-03T08:31:08.951Z,28.85
2023-03-03T08:36:16.636Z,26.20
2023-03-03T08:41:18.060Z,26.98
2023-03-03T08:46:19.584Z,24.35
2023-03-03T08:51:21.071Z,23.67
2023-03-03T08:56:22.593Z,20.17
2023-03-03T09:01:24.507Z,21.98
2023-03-03T09:06:26.052Z,20.25
2023-03-03T09:11:29.288Z,20.55
2023-03-03T09:21:36.648Z,17.77
2023-03-03T09:26:52.916Z,14.90
2023-03-03T09:52:03.734Z,10.00
2023-03-03T09:57:24.813Z,12.18
2023-03-03T10:02:48.473Z,9.77
2023-03-03T10:13:27.410Z,9.20
2023-03-03T10:18:35.859Z,9.77
2023-03-03T10:24:01.492Z,9.98
2023-03-03T11:02:33.205Z,9.32
2023-03-03T11:22:53.164Z,7.68
2023-03-03T11:28:09.516Z,8.98
2023-03-03T11:33:34.678Z,8.77
2023-03-03T12:19:14.288Z,8.55
2023-03-03T12:24:29.643Z,6.68
2023-03-03T12:30:16.390Z,6.35
2023-03-03T12:35:39.167Z,6.03
2023-03-03T12:40:58.098Z,6.27
2023-03-03T12:46:02.422Z,6.45
2023-03-03T12:51:12.440Z,6.22
2023-03-03T12:56:26.619Z,8.45
2023-03-03T13:02:00.210Z,5.75
2023-03-03T13:12:31.480Z,5.60
2023-03-03T13:17:49.431Z,5.15
2023-03-03T13:23:16.041Z,5.25
2023-03-03T13:28:33.960Z,5.00
2023-03-03T13:33:36.046Z,5.55
2023-03-03T13:38:43.036Z,7.72
2023-03-03T13:44:01.827Z,5.20
2023-03-03T13:49:25.378Z,5.97
2023-03-03T13:54:44.706Z,7.22
2023-03-03T14:00:06.531Z,5.72
2023-03-03T14:05:18.450Z,6.97
2023-03-03T14:10:28.903Z,6.03
2023-03-03T14:15:54.457Z,6.15
2023-03-03T14:21:18.858Z,6.07
2023-03-03T14:26:20.268Z,6.82
2023-03-03T14:31:25.080Z,6.72
2023-03-03T14:36:33.302Z,6.63
2023-03-03T14:41:40.185Z,5.88
2023-03-03T14:46:42.964Z,6.05
2023-03-03T14:51:49.669Z,5.53
2023-03-03T14:56:59.087Z,5.88
2023-03-03T15:02:16.002Z,6.65
2023-03-03T15:07:36.363Z,7.60
2023-03-03T15:12:40.615Z,7.30
2023-03-03T15:18:05.217Z,8.00
2023-03-03T15:23:19.440Z,7.22
2023-03-03T15:28:25.088Z,16.00
2023-03-03T15:33:41.638Z,8.55
2023-03-03T15:38:50.816Z,8.23
2023-03-03T15:44:07.075Z,10.27
2023-03-03T15:49:26.457Z,10.93
2023-03-03T15:54:36.777Z,13.38
2023-03-03T15:59:53.583Z,13.88
2023-03-03T16:05:03.090Z,13.70
2023-03-03T16:10:32.467Z,16.38
2023-03-03T16:16:01.382Z,15.43
2023-03-03T16:21:25.587Z,15.95
2023-03-03T16:26:43.334Z,17.88
2023-03-03T16:31:52.657Z,18.38
2023-03-03T16:37:04.545Z,20.45
2023-03-03T16:42:29.385Z,22.83
2023-03-03T16:47:39.838Z,24.13
2023-03-03T16:52:49.596Z,23.88
2023-03-03T16:58:00.060Z,19.90
2023-03-03T17:03:28.606Z,21.58
2023-03-03T17:08:48.279Z,19.63
2023-03-03T17:14:14.314Z,20.45
2023-03-03T17:19:40.181Z,20.52
2023-03-03T17:25:11.165Z,22.83
2023-03-03T17:30:49.571Z,21.45
2023-03-03T17:36:28.816Z,19.95
2023-03-03T17:41:33.238Z,20.50
2023-03-03T17:46:42.706Z,21.50
2023-03-03T17:52:07.194Z,25.58
2023-03-03T17:57:17.367Z,21.15
2023-03-03T18:02:37.098Z,25.90
2023-03-03T18:08:14.781Z,21.75
2023-03-03T18:13:57.398Z,17.35
2023-03-03T18:19:07.853Z,19.80
2023-03-03T18:24:33.302Z,19.60
2023-03-03T18:29:35.023Z,20.55
2023-03-03T18:34:39.990Z,19.83
2023-03-03T18:40:01.630Z,19.30
2023-03-03T18:45:29.504Z,18.63
2023-03-03T18:50:38.264Z,17.20
2023-03-03T18:55:47.889Z,15.88
2023-03-03T19:00:55.078Z,17.63
2023-03-03T19:06:01.399Z,16.58
2023-03-03T19:11:05.203Z,17.50
2023-03-03T19:16:39.513Z,16.27
2023-03-03T19:22:04.637Z,16.52
2023-03-03T19:27:36.749Z,16.55
2023-03-03T19:32:53.779Z,14.95
2023-03-03T19:38:14.694Z,16.75
2023-03-03T19:43:55.112Z,17.25
2023-03-03T19:49:25.357Z,15.57
2023-03-03T19:54:52.016Z,15.18
2023-03-03T20:00:12.700Z,13.13
2023-03-03T20:05:26.389Z,16.00
2023-03-03T20:10:54.241Z,15.13
2023-03-03T20:16:34.697Z,16.55
2023-03-03T20:21:46.509Z,17.35
2023-03-03T20:26:55.652Z,18.90
2023-03-03T20:32:11.417Z,18.45
2023-03-03T20:37:23.027Z,18.60
2023-03-03T20:42:52.787Z,18.90
2023-03-03T20:48:13.149Z,18.80
2023-03-03T20:53:17.692Z,18.23
2023-03-03T20:58:57.823Z,19.30
2023-03-03T21:04:21.540Z,21.77
2023-03-03T21:09:28.446Z,20.52
2023-03-03T21:14:37.758Z,21.48
2023-03-03T21:19:39.621Z,20.65
2023-03-03T21:25:06.185Z,20.95
2023-03-03T21:30:08.907Z,21.17
2023-03-03T21:35:18.917Z,22.75
2023-03-03T21:40:25.840Z,22.88
2023-03-03T21:45:30.002Z,23.08
2023-03-03T21:50:32.612Z,26.80
2023-03-03T21:55:34.063Z,23.80
2023-03-03T22:00:35.476Z,24.73
2023-03-03T22:05:36.915Z,23.20
2023-03-03T22:10:38.939Z,23.25
2023-03-03T22:15:40.362Z,25.13
2023-03-03T22:20:41.772Z,24.60
2023-03-03T22:25:43.184Z,22.80
2023-03-03T22:30:44.634Z,26.02
2023-03-03T22:35:46.401Z,24.60
2023-03-03T22:40:47.903Z,26.77
2023-03-03T22:45:50.442Z,24.15
2023-03-03T22:50:52.457Z,23.55
2023-03-03T22:55:54.266Z,23.48
2023-03-03T23:00:55.816Z,23.08
2023-03-03T23:05:57.222Z,21.88
2023-03-03T23:10:58.642Z,20.02
2023-03-03T23:16:00.232Z,21.77
2023-03-03T23:21:01.775Z,19.00
2023-03-03T23:26:03.527Z,19.65
2023-03-03T23:31:05.082Z,18.88
2023-03-03T23:36:07.023Z,19.98
2023-03-03T23:41:08.473Z,18.05
2023-03-03T23:46:09.983Z,16.98
2023-03-03T23:51:11.406Z,17.88
2023-03-03T23:56:12.804Z,17.05
